Wheaton Aston, United Kingdom
Current Conditions -  °F | °C
As of 10:50 AM on Thursday 27 Nov 2014 (Local Time) from EGOS Reporting Station
Haze Haze  
Wind Chill:   Ceiling: 400
Heat Index:   Visibility: 2.1mi
Dew Point:   Wind: 5mph
Humidity: 100%   Direction: 180°S
Pressure: 29.59"   Gusts: NA
Location:  52.71°N, 2.22°W
Report Text: EGOS 271050Z 18004KT 3500 BR FEW003 BKN004 07/07 Q1002 YLO2 BECMG 5000 BR BKN006 YLO1
Loading
Personal Weather Stations






























Interactive Weather Map New forecast layout! Learn more

10-Day Weather Forecast

Advertisements
Track Severe Weather on mobile